sensor_id;sensor_type;location;lat;lon;timestamp;P1;durP1;ratioP1;P2;durP2;ratioP2
22614;SDS011;11474;50.790;0.298;2023-04-01T00:00:31;6.35;;;2.40;;
22614;SDS011;11474;50.790;0.298;2023-04-01T00:02:58;9.23;;;2.92;;
22614;SDS011;11474;50.790;0.298;2023-04-01T00:05:25;7.17;;;2.70;;
22614;SDS011;11474;50.790;0.298;2023-04-01T00:07:51;9.38;;;2.70;;
22614;SDS011;11474;50.790;0.298;2023-04-01T00:10:17;7.72;;;2.53;;
22614;SDS011;11474;50.790;0.298;2023-04-01T00:12:43;9.02;;;3.00;;
22614;SDS011;11474;50.790;0.298;2023-04-01T00:15:10;11.18;;;2.78;;
22614;SDS011;11474;50.790;0.298;2023-04-01T00:17:37;6.20;;;2.63;;
22614;SDS011;11474;50.790;0.298;2023-04-01T00:20:04;9.73;;;2.63;;
22614;SDS011;11474;50.790;0.298;2023-04-01T00:22:30;7.22;;;2.63;;
22614;SDS011;11474;50.790;0.298;2023-04-01T00:24:56;7.25;;;2.83;;
22614;SDS011;11474;50.790;0.298;2023-04-01T00:27:22;8.70;;;2.70;;
22614;SDS011;11474;50.790;0.298;2023-04-01T00:29:48;7.47;;;2.85;;
22614;SDS011;11474;50.790;0.298;2023-04-01T00:32:14;9.20;;;3.30;;
22614;SDS011;11474;50.790;0.298;2023-04-01T00:34:40;9.70;;;3.10;;
22614;SDS011;11474;50.790;0.298;2023-04-01T00:37:07;13.05;;;3.45;;
22614;SDS011;11474;50.790;0.298;2023-04-01T00:39:33;11.98;;;3.40;;
22614;SDS011;11474;50.790;0.298;2023-04-01T00:42:00;12.45;;;3.67;;
22614;SDS011;11474;50.790;0.298;2023-04-01T00:44:28;10.15;;;3.63;;
22614;SDS011;11474;50.790;0.298;2023-04-01T00:46:55;8.93;;;3.30;;
22614;SDS011;11474;50.790;0.298;2023-04-01T00:49:25;10.50;;;3.55;;
22614;SDS011;11474;50.790;0.298;2023-04-01T00:51:53;10.82;;;3.15;;
22614;SDS011;11474;50.790;0.298;2023-04-01T00:54:20;9.90;;;3.40;;
22614;SDS011;11474;50.790;0.298;2023-04-01T00:57:00;9.68;;;3.10;;
22614;SDS011;11474;50.790;0.298;2023-04-01T00:59:31;10.40;;;3.00;;
22614;SDS011;11474;50.790;0.298;2023-04-01T01:01:58;11.07;;;3.42;;
22614;SDS011;11474;50.790;0.298;2023-04-01T01:04:27;11.45;;;3.97;;
22614;SDS011;11474;50.790;0.298;2023-04-01T01:06:58;12.10;;;3.38;;
22614;SDS011;11474;50.790;0.298;2023-04-01T01:14:43;12.40;;;3.85;;
22614;SDS011;11474;50.790;0.298;2023-04-01T01:17:23;11.05;;;3.50;;
22614;SDS011;11474;50.790;0.298;2023-04-01T01:22:35;14.45;;;3.80;;
22614;SDS011;11474;50.790;0.298;2023-04-01T01:27:33;11.88;;;3.30;;
22614;SDS011;11474;50.790;0.298;2023-04-01T01:37:33;11.63;;;3.17;;
22614;SDS011;11474;50.790;0.298;2023-04-01T01:40:02;10.93;;;3.30;;
22614;SDS011;11474;50.790;0.298;2023-04-01T01:42:29;10.20;;;3.10;;
22614;SDS011;11474;50.790;0.298;2023-04-01T01:44:56;9.30;;;3.50;;
22614;SDS011;11474;50.790;0.298;2023-04-01T01:47:25;10.13;;;3.45;;
22614;SDS011;11474;50.790;0.298;2023-04-01T01:49:51;10.48;;;3.53;;
22614;SDS011;11474;50.790;0.298;2023-04-01T01:52:18;9.65;;;3.17;;
22614;SDS011;11474;50.790;0.298;2023-04-01T01:54:51;9.63;;;2.95;;
22614;SDS011;11474;50.790;0.298;2023-04-01T01:57:20;8.75;;;2.78;;
22614;SDS011;11474;50.790;0.298;2023-04-01T01:59:48;7.60;;;3.25;;
22614;SDS011;11474;50.790;0.298;2023-04-01T02:02:14;6.90;;;2.85;;
22614;SDS011;11474;50.790;0.298;2023-04-01T02:04:42;7.70;;;2.65;;
22614;SDS011;11474;50.790;0.298;2023-04-01T02:07:31;8.07;;;2.70;;
22614;SDS011;11474;50.790;0.298;2023-04-01T02:09:56;5.93;;;2.53;;
22614;SDS011;11474;50.790;0.298;2023-04-01T02:12:22;5.90;;;2.90;;
22614;SDS011;11474;50.790;0.298;2023-04-01T02:14:53;8.55;;;2.80;;
22614;SDS011;11474;50.790;0.298;2023-04-01T02:17:21;7.43;;;2.92;;
22614;SDS011;11474;50.790;0.298;2023-04-01T02:19:58;8.93;;;2.67;;
22614;SDS011;11474;50.790;0.298;2023-04-01T02:22:29;8.40;;;2.70;;
22614;SDS011;11474;50.790;0.298;2023-04-01T02:24:58;7.30;;;2.63;;
22614;SDS011;11474;50.790;0.298;2023-04-01T02:27:25;9.95;;;2.90;;
22614;SDS011;11474;50.790;0.298;2023-04-01T02:29:51;6.97;;;3.00;;
22614;SDS011;11474;50.790;0.298;2023-04-01T02:32:18;9.20;;;2.90;;
22614;SDS011;11474;50.790;0.298;2023-04-01T02:34:45;6.93;;;3.03;;
22614;SDS011;11474;50.790;0.298;2023-04-01T02:37:12;6.63;;;2.67;;
22614;SDS011;11474;50.790;0.298;2023-04-01T02:39:38;7.47;;;2.80;;
22614;SDS011;11474;50.790;0.298;2023-04-01T02:42:04;8.75;;;2.83;;
22614;SDS011;11474;50.790;0.298;2023-04-01T02:44:31;6.97;;;2.42;;
22614;SDS011;11474;50.790;0.298;2023-04-01T02:46:57;7.55;;;3.00;;
22614;SDS011;11474;50.790;0.298;2023-04-01T02:49:23;7.57;;;3.17;;
22614;SDS011;11474;50.790;0.298;2023-04-01T02:51:49;7.50;;;2.53;;
22614;SDS011;11474;50.790;0.298;2023-04-01T02:54:17;8.63;;;2.80;;
22614;SDS011;11474;50.790;0.298;2023-04-01T02:56:43;8.32;;;2.97;;
22614;SDS011;11474;50.790;0.298;2023-04-01T02:59:09;7.73;;;2.73;;
22614;SDS011;11474;50.790;0.298;2023-04-01T03:01:35;9.80;;;2.78;;
22614;SDS011;11474;50.790;0.298;2023-04-01T03:04:01;7.87;;;2.73;;
22614;SDS011;11474;50.790;0.298;2023-04-01T03:06:27;9.82;;;2.90;;
22614;SDS011;11474;50.790;0.298;2023-04-01T03:08:53;8.57;;;2.80;;
22614;SDS011;11474;50.790;0.298;2023-04-01T03:11:19;7.85;;;3.08;;
22614;SDS011;11474;50.790;0.298;2023-04-01T03:13:46;5.40;;;2.60;;
22614;SDS011;11474;50.790;0.298;2023-04-01T03:16:13;6.88;;;2.70;;
22614;SDS011;11474;50.790;0.298;2023-04-01T03:18:40;11.23;;;2.70;;
22614;SDS011;11474;50.790;0.298;2023-04-01T03:21:16;6.97;;;2.65;;
22614;SDS011;11474;50.790;0.298;2023-04-01T03:23:42;6.97;;;2.67;;
22614;SDS011;11474;50.790;0.298;2023-04-01T03:26:08;7.43;;;2.30;;
22614;SDS011;11474;50.790;0.298;2023-04-01T03:28:35;5.47;;;2.40;;
22614;SDS011;11474;50.790;0.298;2023-04-01T03:31:01;6.63;;;2.20;;
22614;SDS011;11474;50.790;0.298;2023-04-01T03:33:27;6.13;;;1.95;;
22614;SDS011;11474;50.790;0.298;2023-04-01T03:35:53;3.10;;;1.83;;
22614;SDS011;11474;50.790;0.298;2023-04-01T03:38:19;3.45;;;1.88;;
22614;SDS011;11474;50.790;0.298;2023-04-01T03:40:45;3.67;;;1.83;;
22614;SDS011;11474;50.790;0.298;2023-04-01T03:43:11;3.50;;;1.80;;
22614;SDS011;11474;50.790;0.298;2023-04-01T03:45:44;5.20;;;2.10;;
22614;SDS011;11474;50.790;0.298;2023-04-01T03:48:11;3.72;;;1.90;;
22614;SDS011;11474;50.790;0.298;2023-04-01T03:50:37;5.07;;;2.05;;
22614;SDS011;11474;50.790;0.298;2023-04-01T03:53:03;6.22;;;2.58;;
22614;SDS011;11474;50.790;0.298;2023-04-01T03:55:29;4.80;;;2.03;;
22614;SDS011;11474;50.790;0.298;2023-04-01T03:57:55;5.50;;;2.20;;
22614;SDS011;11474;50.790;0.298;2023-04-01T04:00:21;4.37;;;2.13;;
22614;SDS011;11474;50.790;0.298;2023-04-01T04:02:47;7.15;;;2.40;;
22614;SDS011;11474;50.790;0.298;2023-04-01T04:05:13;7.20;;;2.10;;
22614;SDS011;11474;50.790;0.298;2023-04-01T04:07:39;5.07;;;2.30;;
22614;SDS011;11474;50.790;0.298;2023-04-01T04:10:05;8.10;;;2.75;;
22614;SDS011;11474;50.790;0.298;2023-04-01T04:12:32;6.25;;;2.50;;
22614;SDS011;11474;50.790;0.298;2023-04-01T04:14:58;9.10;;;2.50;;
22614;SDS011;11474;50.790;0.298;2023-04-01T04:17:24;9.27;;;2.60;;
22614;SDS011;11474;50.790;0.298;2023-04-01T04:19:51;7.68;;;2.50;;
22614;SDS011;11474;50.790;0.298;2023-04-01T04:22:16;8.60;;;2.65;;
22614;SDS011;11474;50.790;0.298;2023-04-01T04:24:42;9.00;;;2.70;;
22614;SDS011;11474;50.790;0.298;2023-04-01T04:27:08;9.30;;;3.13;;
22614;SDS011;11474;50.790;0.298;2023-04-01T04:29:34;7.05;;;2.75;;
22614;SDS011;11474;50.790;0.298;2023-04-01T04:32:00;9.88;;;2.40;;
22614;SDS011;11474;50.790;0.298;2023-04-01T04:34:26;8.80;;;2.70;;
22614;SDS011;11474;50.790;0.298;2023-04-01T04:36:53;12.32;;;2.80;;
22614;SDS011;11474;50.790;0.298;2023-04-01T04:39:18;12.53;;;3.03;;
22614;SDS011;11474;50.790;0.298;2023-04-01T04:41:45;8.00;;;2.78;;
22614;SDS011;11474;50.790;0.298;2023-04-01T04:44:11;9.30;;;2.83;;
22614;SDS011;11474;50.790;0.298;2023-04-01T04:46:37;12.63;;;2.90;;
22614;SDS011;11474;50.790;0.298;2023-04-01T04:49:04;9.73;;;3.00;;
22614;SDS011;11474;50.790;0.298;2023-04-01T04:51:30;10.43;;;3.05;;
22614;SDS011;11474;50.790;0.298;2023-04-01T04:53:59;9.20;;;2.90;;
22614;SDS011;11474;50.790;0.298;2023-04-01T04:56:25;10.68;;;3.28;;
22614;SDS011;11474;50.790;0.298;2023-04-01T04:58:51;13.27;;;3.27;;
22614;SDS011;11474;50.790;0.298;2023-04-01T05:01:18;12.10;;;3.20;;
22614;SDS011;11474;50.790;0.298;2023-04-01T05:03:44;13.30;;;3.38;;
22614;SDS011;11474;50.790;0.298;2023-04-01T05:06:11;10.75;;;2.95;;
22614;SDS011;11474;50.790;0.298;2023-04-01T05:08:37;14.13;;;3.27;;
22614;SDS011;11474;50.790;0.298;2023-04-01T05:11:06;14.55;;;3.72;;
22614;SDS011;11474;50.790;0.298;2023-04-01T05:13:32;10.13;;;3.05;;
22614;SDS011;11474;50.790;0.298;2023-04-01T05:15:58;11.65;;;3.13;;
22614;SDS011;11474;50.790;0.298;2023-04-01T05:18:24;13.18;;;3.55;;
22614;SDS011;11474;50.790;0.298;2023-04-01T05:20:51;13.17;;;3.07;;
22614;SDS011;11474;50.790;0.298;2023-04-01T05:23:17;11.98;;;3.25;;
22614;SDS011;11474;50.790;0.298;2023-04-01T05:25:46;16.42;;;3.63;;
22614;SDS011;11474;50.790;0.298;2023-04-01T05:28:12;12.10;;;3.33;;
22614;SDS011;11474;50.790;0.298;2023-04-01T05:30:41;14.30;;;3.20;;
22614;SDS011;11474;50.790;0.298;2023-04-01T05:33:08;9.50;;;2.88;;
22614;SDS011;11474;50.790;0.298;2023-04-01T05:35:34;9.63;;;2.65;;
22614;SDS011;11474;50.790;0.298;2023-04-01T05:38:00;9.03;;;2.80;;
22614;SDS011;11474;50.790;0.298;2023-04-01T05:40:27;13.13;;;2.80;;
22614;SDS011;11474;50.790;0.298;2023-04-01T05:42:53;9.48;;;2.38;;
22614;SDS011;11474;50.790;0.298;2023-04-01T05:45:19;7.82;;;2.35;;
22614;SDS011;11474;50.790;0.298;2023-04-01T05:47:45;7.18;;;2.40;;
22614;SDS011;11474;50.790;0.298;2023-04-01T05:50:11;5.45;;;2.50;;
22614;SDS011;11474;50.790;0.298;2023-04-01T05:52:38;5.00;;;2.15;;
22614;SDS011;11474;50.790;0.298;2023-04-01T05:55:04;4.90;;;1.98;;
22614;SDS011;11474;50.790;0.298;2023-04-01T05:57:30;7.35;;;2.30;;
22614;SDS011;11474;50.790;0.298;2023-04-01T05:59:57;3.30;;;1.90;;
22614;SDS011;11474;50.790;0.298;2023-04-01T06:02:23;4.50;;;1.77;;
22614;SDS011;11474;50.790;0.298;2023-04-01T06:04:49;4.18;;;2.10;;
22614;SDS011;11474;50.790;0.298;2023-04-01T06:07:16;3.33;;;2.20;;
22614;SDS011;11474;50.790;0.298;2023-04-01T06:09:42;4.30;;;2.50;;
22614;SDS011;11474;50.790;0.298;2023-04-01T06:20:20;5.93;;;2.67;;
22614;SDS011;11474;50.790;0.298;2023-04-01T06:25:30;5.30;;;2.30;;
22614;SDS011;11474;50.790;0.298;2023-04-01T06:28:07;5.72;;;2.83;;
22614;SDS011;11474;50.790;0.298;2023-04-01T06:30:40;5.28;;;2.92;;
22614;SDS011;11474;50.790;0.298;2023-04-01T06:35:43;6.00;;;3.20;;
22614;SDS011;11474;50.790;0.298;2023-04-01T06:38:16;6.60;;;2.97;;
22614;SDS011;11474;50.790;0.298;2023-04-01T06:43:48;5.97;;;3.67;;
22614;SDS011;11474;50.790;0.298;2023-04-01T06:46:35;6.22;;;3.50;;
22614;SDS011;11474;50.790;0.298;2023-04-01T06:51:36;8.90;;;3.85;;
22614;SDS011;11474;50.790;0.298;2023-04-01T06:56:49;7.20;;;3.60;;
22614;SDS011;11474;50.790;0.298;2023-04-01T06:59:22;7.00;;;3.80;;
22614;SDS011;11474;50.790;0.298;2023-04-01T07:01:51;7.28;;;4.22;;
22614;SDS011;11474;50.790;0.298;2023-04-01T07:04:26;8.60;;;4.13;;
22614;SDS011;11474;50.790;0.298;2023-04-01T07:06:54;8.75;;;4.57;;
22614;SDS011;11474;50.790;0.298;2023-04-01T07:09:22;7.20;;;4.65;;
22614;SDS011;11474;50.790;0.298;2023-04-01T07:11:50;7.18;;;4.57;;
22614;SDS011;11474;50.790;0.298;2023-04-01T07:14:22;8.27;;;5.40;;
22614;SDS011;11474;50.790;0.298;2023-04-01T07:24:51;8.90;;;5.85;;
22614;SDS011;11474;50.790;0.298;2023-04-01T07:27:17;10.23;;;6.50;;
22614;SDS011;11474;50.790;0.298;2023-04-01T07:29:43;9.48;;;5.90;;
22614;SDS011;11474;50.790;0.298;2023-04-01T07:32:14;9.82;;;5.82;;
22614;SDS011;11474;50.790;0.298;2023-04-01T07:34:49;11.95;;;6.43;;
22614;SDS011;11474;50.790;0.298;2023-04-01T07:37:30;8.67;;;6.50;;
22614;SDS011;11474;50.790;0.298;2023-04-01T07:40:03;10.20;;;6.47;;
22614;SDS011;11474;50.790;0.298;2023-04-01T07:55:19;10.90;;;7.40;;
22614;SDS011;11474;50.790;0.298;2023-04-01T07:57:56;11.75;;;7.78;;
22614;SDS011;11474;50.790;0.298;2023-04-01T08:05:47;10.38;;;7.25;;
22614;SDS011;11474;50.790;0.298;2023-04-01T08:10:56;11.07;;;7.07;;
22614;SDS011;11474;50.790;0.298;2023-04-01T08:16:10;10.77;;;6.72;;
22614;SDS011;11474;50.790;0.298;2023-04-01T08:21:20;10.35;;;5.75;;
22614;SDS011;11474;50.790;0.298;2023-04-01T08:23:47;9.40;;;5.65;;
22614;SDS011;11474;50.790;0.298;2023-04-01T08:28:50;9.90;;;6.50;;
22614;SDS011;11474;50.790;0.298;2023-04-01T08:31:32;11.52;;;6.28;;
22614;SDS011;11474;50.790;0.298;2023-04-01T08:34:01;10.48;;;5.65;;
22614;SDS011;11474;50.790;0.298;2023-04-01T08:36:37;10.48;;;5.93;;
22614;SDS011;11474;50.790;0.298;2023-04-01T08:39:06;8.60;;;5.60;;
22614;SDS011;11474;50.790;0.298;2023-04-01T08:41:59;11.20;;;5.55;;
22614;SDS011;11474;50.790;0.298;2023-04-01T08:49:28;7.68;;;4.68;;
22614;SDS011;11474;50.790;0.298;2023-04-01T09:15:37;6.32;;;3.65;;
22614;SDS011;11474;50.790;0.298;2023-04-01T09:18:22;4.70;;;3.10;;
22614;SDS011;11474;50.790;0.298;2023-04-01T09:20:58;5.50;;;3.55;;
22614;SDS011;11474;50.790;0.298;2023-04-01T09:23:39;5.60;;;3.60;;
22614;SDS011;11474;50.790;0.298;2023-04-01T09:33:42;7.28;;;4.47;;
22614;SDS011;11474;50.790;0.298;2023-04-01T09:38:57;6.13;;;3.80;;
22614;SDS011;11474;50.790;0.298;2023-04-01T09:41:29;6.70;;;4.03;;
22614;SDS011;11474;50.790;0.298;2023-04-01T09:51:29;5.67;;;3.80;;
22614;SDS011;11474;50.790;0.298;2023-04-01T09:54:04;6.68;;;4.20;;
22614;SDS011;11474;50.790;0.298;2023-04-01T09:56:40;5.70;;;3.80;;
22614;SDS011;11474;50.790;0.298;2023-04-01T10:09:42;6.22;;;4.10;;
22614;SDS011;11474;50.790;0.298;2023-04-01T10:12:40;7.45;;;4.35;;
22614;SDS011;11474;50.790;0.298;2023-04-01T10:17:54;9.17;;;4.63;;
22614;SDS011;11474;50.790;0.298;2023-04-01T10:20:37;7.40;;;4.85;;
22614;SDS011;11474;50.790;0.298;2023-04-01T10:41:16;9.63;;;4.10;;
22614;SDS011;11474;50.790;0.298;2023-04-01T10:56:58;11.68;;;6.22;;
22614;SDS011;11474;50.790;0.298;2023-04-01T11:23:13;8.00;;;5.10;;
22614;SDS011;11474;50.790;0.298;2023-04-01T11:26:01;9.50;;;4.78;;
22614;SDS011;11474;50.790;0.298;2023-04-01T11:38:57;6.68;;;3.50;;
22614;SDS011;11474;50.790;0.298;2023-04-01T11:44:13;8.40;;;3.87;;
22614;SDS011;11474;50.790;0.298;2023-04-01T11:52:01;6.35;;;3.65;;
22614;SDS011;11474;50.790;0.298;2023-04-01T11:59:49;6.38;;;3.20;;
22614;SDS011;11474;50.790;0.298;2023-04-01T12:02:36;6.38;;;2.78;;
22614;SDS011;11474;50.790;0.298;2023-04-01T12:07:57;5.60;;;3.10;;
22614;SDS011;11474;50.790;0.298;2023-04-01T12:13:20;6.15;;;3.28;;
22614;SDS011;11474;50.790;0.298;2023-04-01T12:18:27;4.25;;;2.70;;
22614;SDS011;11474;50.790;0.298;2023-04-01T12:21:00;6.93;;;2.90;;
22614;SDS011;11474;50.790;0.298;2023-04-01T12:29:22;6.27;;;3.00;;
22614;SDS011;11474;50.790;0.298;2023-04-01T12:34:28;5.72;;;3.10;;
22614;SDS011;11474;50.790;0.298;2023-04-01T12:37:06;4.33;;;2.70;;
22614;SDS011;11474;50.790;0.298;2023-04-01T12:47:14;6.10;;;3.30;;
22614;SDS011;11474;50.790;0.298;2023-04-01T12:49:54;5.78;;;3.00;;
22614;SDS011;11474;50.790;0.298;2023-04-01T12:54:59;5.90;;;3.30;;
22614;SDS011;11474;50.790;0.298;2023-04-01T13:05:52;4.68;;;2.50;;
22614;SDS011;11474;50.790;0.298;2023-04-01T13:08:30;4.13;;;2.28;;
22614;SDS011;11474;50.790;0.298;2023-04-01T13:18:47;4.53;;;2.60;;
22614;SDS011;11474;50.790;0.298;2023-04-01T13:21:25;5.55;;;2.88;;
22614;SDS011;11474;50.790;0.298;2023-04-01T13:24:09;4.10;;;2.88;;
22614;SDS011;11474;50.790;0.298;2023-04-01T13:29:35;7.05;;;3.17;;
22614;SDS011;11474;50.790;0.298;2023-04-01T13:32:05;4.80;;;2.90;;
22614;SDS011;11474;50.790;0.298;2023-04-01T13:44:54;5.38;;;2.92;;
22614;SDS011;11474;50.790;0.298;2023-04-01T13:47:24;6.57;;;2.75;;
22614;SDS011;11474;50.790;0.298;2023-04-01T13:55:14;6.10;;;3.10;;
22614;SDS011;11474;50.790;0.298;2023-04-01T14:00:38;10.15;;;3.30;;
22614;SDS011;11474;50.790;0.298;2023-04-01T14:16:00;6.67;;;3.03;;
22614;SDS011;11474;50.790;0.298;2023-04-01T14:26:04;7.50;;;3.23;;
22614;SDS011;11474;50.790;0.298;2023-04-01T14:33:42;6.93;;;3.00;;
22614;SDS011;11474;50.790;0.298;2023-04-01T14:49:24;5.50;;;2.35;;
22614;SDS011;11474;50.790;0.298;2023-04-01T14:51:56;8.07;;;2.90;;
22614;SDS011;11474;50.790;0.298;2023-04-01T14:54:33;7.05;;;3.25;;
22614;SDS011;11474;50.790;0.298;2023-04-01T14:57:14;7.00;;;2.72;;
22614;SDS011;11474;50.790;0.298;2023-04-01T14:59:48;7.63;;;3.00;;
22614;SDS011;11474;50.790;0.298;2023-04-01T15:02:25;7.60;;;3.20;;
22614;SDS011;11474;50.790;0.298;2023-04-01T15:18:09;8.55;;;2.90;;
22614;SDS011;11474;50.790;0.298;2023-04-01T15:23:13;8.73;;;2.63;;
22614;SDS011;11474;50.790;0.298;2023-04-01T15:25:45;6.68;;;2.67;;
22614;SDS011;11474;50.790;0.298;2023-04-01T15:31:01;7.50;;;2.70;;
22614;SDS011;11474;50.790;0.298;2023-04-01T15:38:51;7.18;;;2.55;;
22614;SDS011;11474;50.790;0.298;2023-04-01T15:41:28;6.75;;;2.70;;
22614;SDS011;11474;50.790;0.298;2023-04-01T15:44:01;6.97;;;2.40;;
22614;SDS011;11474;50.790;0.298;2023-04-01T15:49:01;5.93;;;2.53;;
22614;SDS011;11474;50.790;0.298;2023-04-01T15:51:38;7.85;;;2.78;;
22614;SDS011;11474;50.790;0.298;2023-04-01T15:54:19;8.25;;;2.50;;
22614;SDS011;11474;50.790;0.298;2023-04-01T16:01:55;8.07;;;2.60;;
22614;SDS011;11474;50.790;0.298;2023-04-01T16:04:36;7.13;;;2.50;;
22614;SDS011;11474;50.790;0.298;2023-04-01T16:15:09;4.47;;;2.00;;
22614;SDS011;11474;50.790;0.298;2023-04-01T16:27:58;7.80;;;2.80;;
22614;SDS011;11474;50.790;0.298;2023-04-01T16:30:41;8.65;;;2.45;;
22614;SDS011;11474;50.790;0.298;2023-04-01T16:33:11;7.63;;;2.70;;
22614;SDS011;11474;50.790;0.298;2023-04-01T16:35:44;7.13;;;2.60;;
22614;SDS011;11474;50.790;0.298;2023-04-01T16:45:41;9.88;;;2.90;;
22614;SDS011;11474;50.790;0.298;2023-04-01T16:55:57;6.53;;;2.80;;
22614;SDS011;11474;50.790;0.298;2023-04-01T16:58:34;7.22;;;3.15;;
22614;SDS011;11474;50.790;0.298;2023-04-01T17:01:02;7.35;;;3.13;;
22614;SDS011;11474;50.790;0.298;2023-04-01T17:03:34;9.15;;;2.90;;
22614;SDS011;11474;50.790;0.298;2023-04-01T17:11:20;5.53;;;2.40;;
22614;SDS011;11474;50.790;0.298;2023-04-01T17:26:56;9.48;;;3.50;;
22614;SDS011;11474;50.790;0.298;2023-04-01T17:32:20;6.18;;;3.15;;
22614;SDS011;11474;50.790;0.298;2023-04-01T17:35:25;8.52;;;3.78;;
22614;SDS011;11474;50.790;0.298;2023-04-01T17:45:38;6.88;;;3.80;;
22614;SDS011;11474;50.790;0.298;2023-04-01T17:48:18;8.48;;;3.90;;
22614;SDS011;11474;50.790;0.298;2023-04-01T18:06:01;9.27;;;4.30;;
22614;SDS011;11474;50.790;0.298;2023-04-01T18:08:46;9.55;;;4.30;;
22614;SDS011;11474;50.790;0.298;2023-04-01T18:13:53;11.93;;;4.55;;
22614;SDS011;11474;50.790;0.298;2023-04-01T18:24:35;9.55;;;4.55;;
22614;SDS011;11474;50.790;0.298;2023-04-01T18:27:24;10.23;;;4.70;;
22614;SDS011;11474;50.790;0.298;2023-04-01T18:30:01;12.00;;;5.00;;
22614;SDS011;11474;50.790;0.298;2023-04-01T18:32:47;9.05;;;4.80;;
22614;SDS011;11474;50.790;0.298;2023-04-01T18:35:19;10.10;;;4.95;;
22614;SDS011;11474;50.790;0.298;2023-04-01T18:40:17;10.55;;;4.97;;
22614;SDS011;11474;50.790;0.298;2023-04-01T18:45:33;10.23;;;4.40;;
22614;SDS011;11474;50.790;0.298;2023-04-01T18:51:09;10.70;;;4.68;;
22614;SDS011;11474;50.790;0.298;2023-04-01T18:55:56;10.00;;;4.55;;
22614;SDS011;11474;50.790;0.298;2023-04-01T18:58:24;9.60;;;4.45;;
22614;SDS011;11474;50.790;0.298;2023-04-01T19:03:34;10.45;;;4.53;;
22614;SDS011;11474;50.790;0.298;2023-04-01T19:06:13;11.95;;;4.50;;
22614;SDS011;11474;50.790;0.298;2023-04-01T19:08:41;8.45;;;4.30;;
22614;SDS011;11474;50.790;0.298;2023-04-01T19:18:55;10.63;;;4.53;;
22614;SDS011;11474;50.790;0.298;2023-04-01T19:21:42;8.48;;;4.07;;
22614;SDS011;11474;50.790;0.298;2023-04-01T19:26:58;8.60;;;4.45;;
22614;SDS011;11474;50.790;0.298;2023-04-01T19:39:47;12.55;;;4.68;;
22614;SDS011;11474;50.790;0.298;2023-04-01T19:52:31;9.52;;;4.10;;
22614;SDS011;11474;50.790;0.298;2023-04-01T19:57:36;9.02;;;4.55;;
22614;SDS011;11474;50.790;0.298;2023-04-01T20:07:55;8.38;;;3.58;;
22614;SDS011;11474;50.790;0.298;2023-04-01T20:13:11;7.13;;;3.87;;
22614;SDS011;11474;50.790;0.298;2023-04-01T20:15:41;10.00;;;3.93;;
22614;SDS011;11474;50.790;0.298;2023-04-01T20:18:15;7.40;;;3.83;;
22614;SDS011;11474;50.790;0.298;2023-04-01T20:20:51;9.00;;;3.63;;
22614;SDS011;11474;50.790;0.298;2023-04-01T20:26:11;7.07;;;3.60;;
22614;SDS011;11474;50.790;0.298;2023-04-01T20:36:36;9.57;;;4.80;;
22614;SDS011;11474;50.790;0.298;2023-04-01T20:50:18;13.03;;;6.40;;
22614;SDS011;11474;50.790;0.298;2023-04-01T20:53:07;11.43;;;6.63;;
22614;SDS011;11474;50.790;0.298;2023-04-01T21:03:23;7.65;;;4.18;;
22614;SDS011;11474;50.790;0.298;2023-04-01T21:05:57;6.45;;;3.30;;
22614;SDS011;11474;50.790;0.298;2023-04-01T21:23:40;5.43;;;2.40;;
22614;SDS011;11474;50.790;0.298;2023-04-01T21:41:23;7.70;;;2.70;;
22614;SDS011;11474;50.790;0.298;2023-04-01T21:46:56;7.65;;;2.78;;
22614;SDS011;11474;50.790;0.298;2023-04-01T22:07:21;4.13;;;2.20;;
22614;SDS011;11474;50.790;0.298;2023-04-01T22:09:56;5.75;;;2.35;;
22614;SDS011;11474;50.790;0.298;2023-04-01T22:12:28;6.35;;;2.50;;
22614;SDS011;11474;50.790;0.298;2023-04-01T22:25:50;6.28;;;2.40;;
22614;SDS011;11474;50.790;0.298;2023-04-01T22:30:47;5.10;;;2.50;;
22614;SDS011;11474;50.790;0.298;2023-04-01T22:45:58;6.13;;;2.30;;
22614;SDS011;11474;50.790;0.298;2023-04-01T22:53:33;4.50;;;1.88;;
22614;SDS011;11474;50.790;0.298;2023-04-01T22:56:03;4.85;;;1.88;;
22614;SDS011;11474;50.790;0.298;2023-04-01T22:58:32;4.70;;;1.88;;
22614;SDS011;11474;50.790;0.298;2023-04-01T23:01:07;6.03;;;2.10;;
22614;SDS011;11474;50.790;0.298;2023-04-01T23:03:41;4.50;;;2.00;;
22614;SDS011;11474;50.790;0.298;2023-04-01T23:06:12;4.60;;;1.95;;
22614;SDS011;11474;50.790;0.298;2023-04-01T23:19:37;4.25;;;1.83;;
22614;SDS011;11474;50.790;0.298;2023-04-01T23:24:50;6.55;;;2.00;;
22614;SDS011;11474;50.790;0.298;2023-04-01T23:27:38;4.88;;;1.80;;
22614;SDS011;11474;50.790;0.298;2023-04-01T23:30:45;4.80;;;2.00;;
22614;SDS011;11474;50.790;0.298;2023-04-01T23:32:52;4.20;;;1.90;;
22614;SDS011;11474;50.790;0.298;2023-04-01T23:35:18;6.32;;;2.00;;
22614;SDS011;11474;50.790;0.298;2023-04-01T23:37:45;5.25;;;1.85;;
22614;SDS011;11474;50.790;0.298;2023-04-01T23:40:12;4.60;;;1.80;;
22614;SDS011;11474;50.790;0.298;2023-04-01T23:42:39;5.68;;;1.95;;
22614;SDS011;11474;50.790;0.298;2023-04-01T23:45:13;5.00;;;1.90;;
22614;SDS011;11474;50.790;0.298;2023-04-01T23:47:42;5.10;;;1.80;;
22614;SDS011;11474;50.790;0.298;2023-04-01T23:52:46;5.68;;;2.17;;
22614;SDS011;11474;50.790;0.298;2023-04-01T23:57:39;2.78;;;1.70;;
